createdAt,value
2019-03-04T00:01:12.151Z,15.77
2019-03-04T00:02:15.074Z,15.76
2019-03-04T00:03:17.268Z,15.76
2019-03-04T00:04:19.684Z,15.76
2019-03-04T00:05:21.908Z,15.77
2019-03-04T00:06:24.128Z,15.76
2019-03-04T00:07:26.324Z,15.76
2019-03-04T00:08:28.524Z,15.75
2019-03-04T00:09:30.750Z,15.75
2019-03-04T00:10:32.952Z,15.75
2019-03-04T00:11:35.158Z,15.75
2019-03-04T00:12:37.404Z,15.75
2019-03-04T00:13:39.590Z,15.75
2019-03-04T00:14:41.812Z,15.74
2019-03-04T00:15:44.001Z,15.74
2019-03-04T00:16:46.202Z,15.73
2019-03-04T00:17:48.395Z,15.73
2019-03-04T00:18:50.678Z,15.72
2019-03-04T00:19:52.904Z,15.72
2019-03-04T00:20:55.094Z,15.73
2019-03-04T00:21:57.217Z,15.72
2019-03-04T00:22:59.350Z,15.71
2019-03-04T00:24:01.542Z,15.71
2019-03-04T00:25:03.753Z,15.71
2019-03-04T00:26:05.942Z,15.72
2019-03-04T00:27:08.156Z,15.71
2019-03-04T00:28:10.360Z,15.71
2019-03-04T00:29:12.718Z,15.71
2019-03-04T00:30:14.951Z,15.70
2019-03-04T00:31:17.161Z,15.70
2019-03-04T00:32:19.366Z,15.70
2019-03-04T00:33:21.579Z,15.70
2019-03-04T00:34:23.790Z,15.71
2019-03-04T00:35:26.078Z,15.70
2019-03-04T00:36:28.290Z,15.71
2019-03-04T00:37:30.504Z,15.70
2019-03-04T00:38:32.692Z,15.70
2019-03-04T00:39:34.886Z,15.69
2019-03-04T00:40:37.099Z,15.70
2019-03-04T00:41:39.286Z,15.70
2019-03-04T00:42:41.484Z,15.71
2019-03-04T00:43:43.679Z,15.71
2019-03-04T00:44:45.886Z,15.71
2019-03-04T00:45:48.114Z,15.71
2019-03-04T00:46:50.308Z,15.71
2019-03-04T00:47:52.518Z,15.71
2019-03-04T00:48:56.417Z,15.71
2019-03-04T00:49:59.915Z,15.71
2019-03-04T00:51:02.154Z,15.71
2019-03-04T00:52:04.358Z,15.72
2019-03-04T00:53:06.552Z,15.72
2019-03-04T00:54:08.778Z,15.72
2019-03-04T00:55:11.004Z,15.73
2019-03-04T00:56:13.209Z,15.72
2019-03-04T00:57:15.421Z,15.73
2019-03-04T00:58:17.629Z,15.73
2019-03-04T00:59:19.859Z,15.74
2019-03-04T01:00:22.098Z,15.73
2019-03-04T01:01:24.410Z,15.73
2019-03-04T01:02:26.612Z,15.74
2019-03-04T01:03:28.830Z,15.73
2019-03-04T01:04:31.022Z,15.75
2019-03-04T01:05:33.245Z,15.74
2019-03-04T01:06:35.456Z,15.74
2019-03-04T01:07:40.715Z,15.76
2019-03-04T01:08:42.918Z,15.75
2019-03-04T01:09:45.130Z,15.75
2019-03-04T01:10:47.336Z,15.76
2019-03-04T01:11:49.535Z,15.76
2019-03-04T01:12:54.722Z,15.76
2019-03-04T01:13:56.922Z,15.76
2019-03-04T01:14:59.130Z,15.77
2019-03-04T01:16:01.360Z,15.78
2019-03-04T01:17:03.576Z,15.77
2019-03-04T01:18:05.760Z,15.77
2019-03-04T01:19:07.949Z,15.77
2019-03-04T01:20:10.138Z,15.78
2019-03-04T01:21:12.351Z,15.77
2019-03-04T01:22:14.555Z,15.77
2019-03-04T01:23:16.764Z,15.78
2019-03-04T01:24:18.963Z,15.77
2019-03-04T01:25:21.173Z,15.77
2019-03-04T01:26:23.373Z,15.78
2019-03-04T01:27:25.579Z,15.77
2019-03-04T01:28:27.870Z,15.78
2019-03-04T01:29:30.096Z,15.79
2019-03-04T01:30:32.329Z,15.78
2019-03-04T01:31:34.562Z,15.78
2019-03-04T01:32:36.764Z,15.78
2019-03-04T01:33:38.962Z,15.76
2019-03-04T01:34:41.174Z,15.77
2019-03-04T01:35:43.379Z,15.78
2019-03-04T01:36:45.596Z,15.77
2019-03-04T01:37:47.798Z,15.77
2019-03-04T01:38:50.027Z,15.78
2019-03-04T01:39:52.191Z,15.78
2019-03-04T01:40:54.403Z,15.78
2019-03-04T01:41:56.604Z,15.77
2019-03-04T01:43:00.315Z,15.77
2019-03-04T01:44:02.521Z,15.78
2019-03-04T01:45:04.731Z,15.77
2019-03-04T01:46:06.922Z,15.78
2019-03-04T01:47:10.851Z,15.77
2019-03-04T01:48:13.150Z,15.78
2019-03-04T01:49:15.347Z,15.78
2019-03-04T01:50:17.555Z,15.77
2019-03-04T01:51:19.784Z,15.76
2019-03-04T01:52:21.983Z,15.77
2019-03-04T01:53:24.171Z,15.76
2019-03-04T01:54:28.112Z,15.77
2019-03-04T01:55:30.378Z,15.76
2019-03-04T01:56:32.607Z,15.76
2019-03-04T01:57:34.799Z,15.76
2019-03-04T01:58:36.999Z,15.76
2019-03-04T01:59:39.196Z,15.76
2019-03-04T02:00:44.437Z,15.76
2019-03-04T02:01:46.653Z,15.76
2019-03-04T02:02:48.855Z,15.76
2019-03-04T02:03:51.064Z,15.76
2019-03-04T02:04:53.246Z,15.76
2019-03-04T02:05:55.455Z,15.76
2019-03-04T02:06:57.654Z,15.76
2019-03-04T02:07:59.855Z,15.75
2019-03-04T02:09:02.063Z,15.76
2019-03-04T02:10:04.275Z,15.75
2019-03-04T02:11:06.487Z,15.75
2019-03-04T02:12:08.712Z,15.75
2019-03-04T02:13:10.903Z,15.76
2019-03-04T02:14:13.098Z,15.76
2019-03-04T02:15:15.299Z,15.75
2019-03-04T02:16:17.503Z,15.75
2019-03-04T02:17:19.719Z,15.77
2019-03-04T02:18:21.918Z,15.75
2019-03-04T02:19:24.121Z,15.75
2019-03-04T02:20:26.332Z,15.76
2019-03-04T02:21:28.534Z,15.75
2019-03-04T02:22:30.739Z,15.75
2019-03-04T02:23:32.943Z,15.75
2019-03-04T02:24:35.161Z,15.74
2019-03-04T02:25:37.460Z,15.75
2019-03-04T02:26:39.653Z,15.75
2019-03-04T02:27:41.877Z,15.75
2019-03-04T02:28:44.081Z,15.74
2019-03-04T02:29:46.287Z,15.74
2019-03-04T02:30:48.515Z,15.75
2019-03-04T02:31:50.721Z,15.75
2019-03-04T02:32:52.963Z,15.75
2019-03-04T02:33:55.158Z,15.75
2019-03-04T02:34:59.461Z,15.74
2019-03-04T02:36:01.660Z,15.74
2019-03-04T02:37:03.866Z,15.75
2019-03-04T02:38:06.115Z,15.76
2019-03-04T02:39:08.312Z,15.75
2019-03-04T02:40:10.522Z,15.75
2019-03-04T02:41:12.726Z,15.74
2019-03-04T02:42:14.931Z,15.74
2019-03-04T02:43:17.253Z,15.74
2019-03-04T02:44:19.457Z,15.74
2019-03-04T02:45:21.750Z,15.73
2019-03-04T02:46:23.942Z,15.74
2019-03-04T02:47:26.143Z,15.74
2019-03-04T02:48:28.366Z,15.74
2019-03-04T02:49:30.580Z,15.74
2019-03-04T02:50:32.773Z,15.74
2019-03-04T02:51:34.976Z,15.74
2019-03-04T02:52:37.442Z,15.73
2019-03-04T02:53:39.684Z,15.74
2019-03-04T02:54:41.974Z,15.74
2019-03-04T02:55:44.174Z,15.73
2019-03-04T02:56:46.366Z,15.74
2019-03-04T02:57:48.559Z,15.74
2019-03-04T02:58:50.752Z,15.73
2019-03-04T02:59:52.966Z,15.74
2019-03-04T03:00:55.249Z,15.74
2019-03-04T03:01:57.428Z,15.74
2019-03-04T03:02:59.637Z,15.75
2019-03-04T03:04:01.871Z,15.75
2019-03-04T03:05:04.072Z,15.74
2019-03-04T03:06:06.294Z,15.74
2019-03-04T03:07:08.486Z,15.73
2019-03-04T03:08:10.693Z,15.73
2019-03-04T03:09:12.949Z,15.74
2019-03-04T03:10:15.222Z,15.73
2019-03-04T03:11:19.164Z,15.73
2019-03-04T03:12:21.313Z,15.73
2019-03-04T03:13:23.513Z,15.74
2019-03-04T03:14:25.969Z,15.74
2019-03-04T03:15:28.149Z,15.73
2019-03-04T03:16:30.357Z,15.73
2019-03-04T03:17:32.541Z,15.73
2019-03-04T03:18:34.746Z,15.74
2019-03-04T03:19:36.986Z,15.73
2019-03-04T03:20:39.173Z,15.74
2019-03-04T03:21:41.382Z,15.73
2019-03-04T03:22:43.598Z,15.72
2019-03-04T03:23:45.810Z,15.73
2019-03-04T03:24:48.041Z,15.73
2019-03-04T03:25:50.261Z,15.73
2019-03-04T03:26:52.452Z,15.73
2019-03-04T03:27:54.671Z,15.73
2019-03-04T03:28:56.855Z,15.74
2019-03-04T03:29:59.090Z,15.73
2019-03-04T03:31:01.417Z,15.72
2019-03-04T03:32:03.784Z,15.73
2019-03-04T03:33:05.995Z,15.72
2019-03-04T03:34:08.193Z,15.73
2019-03-04T03:35:10.445Z,15.73
2019-03-04T03:36:15.370Z,15.73
2019-03-04T03:37:17.567Z,15.72
2019-03-04T03:38:19.782Z,15.73
2019-03-04T03:39:21.980Z,15.73
2019-03-04T03:40:24.219Z,15.73
2019-03-04T03:41:26.423Z,15.73
2019-03-04T03:42:28.635Z,15.73
2019-03-04T03:43:30.841Z,15.72
2019-03-04T03:44:33.045Z,15.73
2019-03-04T03:45:35.277Z,15.72
2019-03-04T03:46:37.484Z,15.73
2019-03-04T03:47:39.696Z,15.73
2019-03-04T03:48:41.900Z,15.73
2019-03-04T03:49:44.109Z,15.72
2019-03-04T03:50:46.315Z,15.72
2019-03-04T03:51:48.501Z,15.73
2019-03-04T03:52:50.707Z,15.72
2019-03-04T03:53:52.904Z,15.72
2019-03-04T03:54:55.111Z,15.73
2019-03-04T03:55:57.340Z,15.73
2019-03-04T03:56:59.569Z,15.72
2019-03-04T03:58:01.779Z,15.72
2019-03-04T03:59:06.086Z,15.71
2019-03-04T04:00:11.032Z,15.72
2019-03-04T04:01:13.280Z,15.72
2019-03-04T04:02:15.475Z,15.72
2019-03-04T04:03:17.674Z,15.72
2019-03-04T04:04:19.947Z,15.73
2019-03-04T04:05:22.149Z,15.71
2019-03-04T04:06:24.394Z,15.72
2019-03-04T04:07:26.584Z,15.72
2019-03-04T04:08:28.787Z,15.72
2019-03-04T04:09:30.990Z,15.72
2019-03-04T04:10:33.198Z,15.72
2019-03-04T04:11:35.628Z,15.72
2019-03-04T04:12:37.838Z,15.72
2019-03-04T04:13:40.034Z,15.73
2019-03-04T04:14:42.238Z,15.72
2019-03-04T04:15:44.734Z,15.72
2019-03-04T04:16:46.976Z,15.73
2019-03-04T04:17:49.181Z,15.72
2019-03-04T04:18:51.378Z,15.72
2019-03-04T04:19:53.582Z,15.72
2019-03-04T04:20:55.783Z,15.72
2019-03-04T04:21:58.000Z,15.73
2019-03-04T04:23:00.214Z,15.72
2019-03-04T04:24:02.402Z,15.72
2019-03-04T04:25:04.602Z,15.71
2019-03-04T04:26:21.058Z,15.72
2019-03-04T04:27:23.206Z,15.72
2019-03-04T04:28:25.399Z,15.72
2019-03-04T04:29:27.730Z,15.72
2019-03-04T04:30:33.095Z,15.71
2019-03-04T04:31:35.307Z,15.73
2019-03-04T04:32:37.525Z,15.71
2019-03-04T04:33:39.719Z,15.72
2019-03-04T04:34:41.921Z,15.71
2019-03-04T04:35:44.242Z,15.71
2019-03-04T04:36:48.267Z,15.71
2019-03-04T04:37:50.496Z,15.72
2019-03-04T04:38:52.710Z,15.72
2019-03-04T04:39:55.911Z,15.72
2019-03-04T04:40:58.115Z,15.71
2019-03-04T04:42:00.315Z,15.70
2019-03-04T04:43:02.545Z,15.72
2019-03-04T04:44:06.261Z,15.71
2019-03-04T04:45:08.447Z,15.71
2019-03-04T04:46:10.630Z,15.71
2019-03-04T04:47:12.835Z,15.70
2019-03-04T04:48:15.067Z,15.70
2019-03-04T04:49:17.277Z,15.70
2019-03-04T04:50:19.699Z,15.71
2019-03-04T04:51:21.905Z,15.70
2019-03-04T04:52:24.201Z,15.70
2019-03-04T04:53:26.440Z,15.71
2019-03-04T04:54:28.635Z,15.70
2019-03-04T04:55:30.839Z,15.70
2019-03-04T04:56:33.049Z,15.70
2019-03-04T04:57:35.247Z,15.71
2019-03-04T04:58:37.489Z,15.70
2019-03-04T04:59:39.709Z,15.70
2019-03-04T05:00:41.933Z,15.71
2019-03-04T05:01:44.136Z,15.71
2019-03-04T05:02:46.344Z,15.70
2019-03-04T05:03:50.283Z,15.71
2019-03-04T05:04:52.475Z,15.71
2019-03-04T05:05:54.675Z,15.71
2019-03-04T05:06:56.873Z,15.70
2019-03-04T05:07:59.074Z,15.70
2019-03-04T05:09:01.375Z,15.70
2019-03-04T05:10:03.544Z,15.70
2019-03-04T05:11:05.755Z,15.70
2019-03-04T05:12:08.119Z,15.70
2019-03-04T05:13:10.313Z,15.69
2019-03-04T05:14:12.541Z,15.70
2019-03-04T05:15:14.744Z,15.70
2019-03-04T05:16:16.947Z,15.69
2019-03-04T05:17:19.198Z,15.71
2019-03-04T05:18:21.338Z,15.71
2019-03-04T05:19:23.564Z,15.69
2019-03-04T05:20:28.571Z,15.70
2019-03-04T05:21:30.779Z,15.69
2019-03-04T05:22:32.979Z,15.70
2019-03-04T05:23:35.188Z,15.70
2019-03-04T05:24:39.502Z,15.70
2019-03-04T05:25:41.733Z,15.69
2019-03-04T05:26:43.939Z,15.69
2019-03-04T05:27:46.131Z,15.70
2019-03-04T05:28:48.345Z,15.69
2019-03-04T05:29:50.757Z,15.70
2019-03-04T05:30:52.949Z,15.70
2019-03-04T05:31:55.147Z,15.69
2019-03-04T05:32:57.354Z,15.69
2019-03-04T05:33:59.557Z,15.70
2019-03-04T05:35:01.805Z,15.69
2019-03-04T05:36:04.005Z,15.70
2019-03-04T05:37:06.216Z,15.69
2019-03-04T05:38:08.422Z,15.70
2019-03-04T05:39:10.621Z,15.70
2019-03-04T05:40:12.862Z,15.69
2019-03-04T05:41:15.063Z,15.70
2019-03-04T05:42:17.255Z,15.69
2019-03-04T05:43:19.468Z,15.69
2019-03-04T05:44:21.666Z,15.69
2019-03-04T05:45:23.911Z,15.69
2019-03-04T05:46:26.132Z,15.70
2019-03-04T05:47:28.328Z,15.69
2019-03-04T05:48:30.538Z,15.69
2019-03-04T05:49:32.741Z,15.69
2019-03-04T05:50:34.990Z,15.70
2019-03-04T05:51:37.300Z,15.69
2019-03-04T05:52:39.496Z,15.70
2019-03-04T05:53:41.692Z,15.70
2019-03-04T05:54:44.023Z,15.70
2019-03-04T05:55:46.316Z,15.70
2019-03-04T05:56:48.519Z,15.69
2019-03-04T05:57:50.724Z,15.70
2019-03-04T05:58:52.926Z,15.70
2019-03-04T05:59:55.141Z,15.70
2019-03-04T06:00:57.491Z,15.69
2019-03-04T06:02:02.196Z,15.70
2019-03-04T06:03:04.407Z,15.70
2019-03-04T06:04:06.703Z,15.70
2019-03-04T06:05:09.005Z,15.71
2019-03-04T06:06:11.256Z,15.70
2019-03-04T06:07:38.534Z,15.70
2019-03-04T06:08:41.113Z,15.71
2019-03-04T06:09:43.324Z,15.70
2019-03-04T06:10:45.522Z,15.71
2019-03-04T06:11:47.743Z,15.71
2019-03-04T06:12:52.348Z,15.72
2019-03-04T06:13:54.540Z,15.71
2019-03-04T06:14:56.747Z,15.70
2019-03-04T06:15:58.966Z,15.70
2019-03-04T06:17:01.204Z,15.71
2019-03-04T06:18:03.412Z,15.70
2019-03-04T06:19:05.616Z,15.70
2019-03-04T06:20:07.856Z,15.70
2019-03-04T06:21:10.054Z,15.70
2019-03-04T06:22:12.302Z,15.69
2019-03-04T06:23:14.508Z,15.70
2019-03-04T06:24:18.081Z,15.70
2019-03-04T06:25:20.227Z,15.69
2019-03-04T06:26:22.426Z,15.70
2019-03-04T06:27:24.657Z,15.68
2019-03-04T06:28:26.879Z,15.70
2019-03-04T06:29:29.070Z,15.69
2019-03-04T06:30:31.263Z,15.69
2019-03-04T06:31:33.492Z,15.70
2019-03-04T06:32:35.706Z,15.69
2019-03-04T06:33:37.928Z,15.70
2019-03-04T06:34:40.130Z,15.70
2019-03-04T06:35:42.330Z,15.71
2019-03-04T06:36:44.736Z,15.70
2019-03-04T06:37:46.974Z,15.70
2019-03-04T06:38:49.191Z,15.71
2019-03-04T06:39:51.403Z,15.70
2019-03-04T06:40:53.618Z,15.71
2019-03-04T06:41:55.836Z,15.70
2019-03-04T06:42:59.818Z,15.72
2019-03-04T06:44:02.156Z,15.72
2019-03-04T06:45:04.346Z,15.72
2019-03-04T06:46:08.874Z,15.72
2019-03-04T06:47:11.455Z,15.73
2019-03-04T06:48:14.201Z,15.73
2019-03-04T06:49:16.403Z,15.71
2019-03-04T06:50:18.594Z,15.73
2019-03-04T06:51:20.804Z,15.73
2019-03-04T06:52:23.011Z,15.72
2019-03-04T06:53:25.275Z,15.74
2019-03-04T06:54:27.454Z,15.73
2019-03-04T06:55:29.834Z,15.73
2019-03-04T06:56:32.041Z,15.73
2019-03-04T06:57:34.246Z,15.72
2019-03-04T06:58:36.482Z,15.72
2019-03-04T06:59:38.688Z,15.71
2019-03-04T07:00:40.884Z,15.71
2019-03-04T07:01:45.995Z,15.71
2019-03-04T07:02:48.202Z,15.71
2019-03-04T07:03:50.430Z,15.72
2019-03-04T07:04:52.635Z,15.71
2019-03-04T07:05:54.936Z,15.72
2019-03-04T07:06:57.149Z,15.72
2019-03-04T07:07:59.368Z,15.73
2019-03-04T07:09:01.603Z,15.72
2019-03-04T07:10:03.814Z,15.73
2019-03-04T07:11:06.032Z,15.73
2019-03-04T07:12:08.248Z,15.73
2019-03-04T07:13:11.463Z,15.74
2019-03-04T07:14:13.672Z,15.72
2019-03-04T07:15:15.870Z,15.72
2019-03-04T07:16:18.091Z,15.71
2019-03-04T07:17:20.292Z,15.73
2019-03-04T07:18:22.496Z,15.73
2019-03-04T07:19:24.710Z,15.74
2019-03-04T07:20:26.935Z,15.73
2019-03-04T07:21:29.143Z,15.72
2019-03-04T07:22:31.350Z,15.73
2019-03-04T07:23:33.558Z,15.72
2019-03-04T07:24:35.784Z,15.72
2019-03-04T07:25:37.987Z,15.72
2019-03-04T07:26:40.204Z,15.72
2019-03-04T07:27:44.333Z,15.73
2019-03-04T07:28:46.301Z,15.72
2019-03-04T07:29:48.506Z,15.74
2019-03-04T07:30:50.707Z,15.74
2019-03-04T07:31:54.501Z,15.74
2019-03-04T07:32:56.704Z,15.74
2019-03-04T07:33:58.940Z,15.75
2019-03-04T07:35:01.137Z,15.75
2019-03-04T07:36:03.341Z,15.76
2019-03-04T07:37:05.556Z,15.75
2019-03-04T07:38:07.748Z,15.75
2019-03-04T07:39:09.958Z,15.75
2019-03-04T07:40:12.282Z,15.75
2019-03-04T07:41:14.515Z,15.75
2019-03-04T07:42:16.719Z,15.75
2019-03-04T07:43:18.926Z,15.75
2019-03-04T07:44:21.143Z,15.75
2019-03-04T07:45:23.366Z,15.73
2019-03-04T07:46:26.778Z,15.73
2019-03-04T07:47:28.950Z,15.72
2019-03-04T07:48:31.168Z,15.74
2019-03-04T07:49:33.425Z,15.72
2019-03-04T07:50:35.658Z,15.73
2019-03-04T07:51:37.868Z,15.72
2019-03-04T07:52:40.073Z,15.71
2019-03-04T07:53:46.350Z,15.71
2019-03-04T07:54:46.133Z,15.71
2019-03-04T07:55:48.374Z,15.71
2019-03-04T07:56:50.563Z,15.71
2019-03-04T07:57:52.766Z,15.70
2019-03-04T07:58:54.980Z,15.71
2019-03-04T07:59:58.569Z,15.70
2019-03-04T08:01:00.728Z,15.71
2019-03-04T08:02:02.936Z,15.70
2019-03-04T08:03:05.131Z,15.70
2019-03-04T08:04:07.341Z,15.69
2019-03-04T08:05:09.536Z,15.69
2019-03-04T08:06:11.769Z,15.69
2019-03-04T08:07:13.979Z,15.68
2019-03-04T08:08:16.362Z,15.68
2019-03-04T08:09:18.484Z,15.69
2019-03-04T08:10:20.703Z,15.69
2019-03-04T08:11:22.951Z,15.68
2019-03-04T08:12:25.142Z,15.69
2019-03-04T08:13:27.351Z,15.69
2019-03-04T08:14:29.564Z,15.69
2019-03-04T08:15:31.780Z,15.69
2019-03-04T08:16:36.139Z,15.69
2019-03-04T08:17:37.853Z,15.70
2019-03-04T08:18:40.055Z,15.69
2019-03-04T08:19:44.108Z,15.71
2019-03-04T08:20:46.316Z,15.70
2019-03-04T08:21:48.561Z,15.70
2019-03-04T08:22:50.784Z,15.70
2019-03-04T08:23:52.989Z,15.70
2019-03-04T08:24:55.203Z,15.70
2019-03-04T08:25:57.527Z,15.70
2019-03-04T08:26:59.765Z,15.70
2019-03-04T08:28:01.973Z,15.70
2019-03-04T08:29:04.189Z,15.71
2019-03-04T08:30:06.403Z,15.70
2019-03-04T08:31:08.623Z,15.72
2019-03-04T08:32:10.848Z,15.71
2019-03-04T08:33:13.066Z,15.70
2019-03-04T08:34:15.286Z,15.69
2019-03-04T08:35:17.487Z,15.68
2019-03-04T08:36:19.675Z,15.68
2019-03-04T08:37:21.901Z,15.68
2019-03-04T08:38:24.128Z,15.68
2019-03-04T08:39:26.335Z,15.67
2019-03-04T08:40:28.532Z,15.69
2019-03-04T08:41:30.739Z,15.68
2019-03-04T08:42:34.778Z,15.68
2019-03-04T08:43:37.080Z,15.68
2019-03-04T08:44:39.766Z,15.67
2019-03-04T08:45:41.961Z,15.68
2019-03-04T08:46:44.187Z,15.67
2019-03-04T08:47:46.403Z,15.67
2019-03-04T08:48:48.627Z,15.67
2019-03-04T08:49:50.851Z,15.67
2019-03-04T08:50:53.059Z,15.66
2019-03-04T08:51:55.273Z,15.66
2019-03-04T08:52:57.518Z,15.66
2019-03-04T08:53:59.746Z,15.67
2019-03-04T08:55:01.952Z,15.66
2019-03-04T08:56:04.180Z,15.67
2019-03-04T08:57:06.370Z,15.67
2019-03-04T08:58:08.604Z,15.68
2019-03-04T08:59:14.162Z,15.68
2019-03-04T09:00:16.378Z,15.68
2019-03-04T09:01:18.576Z,15.68
2019-03-04T09:02:20.782Z,15.69
2019-03-04T09:03:23.051Z,15.68
2019-03-04T09:04:25.252Z,15.68
2019-03-04T09:05:27.472Z,15.69
2019-03-04T09:06:31.992Z,15.67
2019-03-04T09:07:34.196Z,15.67
2019-03-04T09:08:36.470Z,15.66
2019-03-04T09:09:38.666Z,15.66
2019-03-04T09:10:40.898Z,15.67
2019-03-04T09:11:43.118Z,15.66
2019-03-04T09:12:45.326Z,15.66
2019-03-04T09:13:47.546Z,15.66
2019-03-04T09:14:49.773Z,15.66
2019-03-04T09:15:51.970Z,15.66
2019-03-04T09:16:54.191Z,15.66
2019-03-04T09:17:56.408Z,15.66
2019-03-04T09:18:59.878Z,15.66
2019-03-04T09:20:02.087Z,15.65
2019-03-04T09:21:04.302Z,15.65
2019-03-04T09:22:06.484Z,15.67
2019-03-04T09:23:08.658Z,15.67
2019-03-04T09:24:10.895Z,15.65
2019-03-04T09:25:13.102Z,15.66
2019-03-04T09:26:15.407Z,15.65
2019-03-04T09:27:17.628Z,15.66
2019-03-04T09:28:19.818Z,15.65
2019-03-04T09:29:22.090Z,15.64
2019-03-04T09:30:24.338Z,15.65
2019-03-04T09:31:26.550Z,15.65
2019-03-04T09:32:28.754Z,15.66
2019-03-04T09:33:30.966Z,15.65
2019-03-04T09:34:35.780Z,15.66
2019-03-04T09:35:38.049Z,15.66
2019-03-04T09:36:40.245Z,15.67
2019-03-04T09:37:42.548Z,15.68
2019-03-04T09:38:44.738Z,15.69
2019-03-04T09:39:46.978Z,15.70
2019-03-04T09:40:49.179Z,15.70
2019-03-04T09:41:56.020Z,15.70
2019-03-04T09:42:58.214Z,15.70
2019-03-04T09:44:00.426Z,15.71
2019-03-04T09:45:02.667Z,15.71
2019-03-04T09:46:04.944Z,15.72
2019-03-04T09:47:07.164Z,15.72
2019-03-04T09:48:09.359Z,15.73
2019-03-04T09:49:11.574Z,15.73
2019-03-04T09:50:13.821Z,15.73
2019-03-04T09:51:24.006Z,15.72
2019-03-04T09:52:19.872Z,15.72
2019-03-04T09:53:22.010Z,15.72
2019-03-04T09:54:24.215Z,15.73
2019-03-04T09:55:26.506Z,15.72
2019-03-04T09:56:28.735Z,15.72
2019-03-04T09:57:30.946Z,15.72
2019-03-04T09:58:33.134Z,15.73
2019-03-04T09:59:35.427Z,15.72
2019-03-04T10:00:37.670Z,15.72
2019-03-04T10:01:42.058Z,15.73
2019-03-04T10:02:44.264Z,15.73
2019-03-04T10:03:46.468Z,15.73
2019-03-04T10:04:49.009Z,15.73
2019-03-04T10:05:51.221Z,15.73
2019-03-04T10:06:53.413Z,15.73
2019-03-04T10:07:55.638Z,15.73
2019-03-04T10:08:57.848Z,15.72
2019-03-04T10:10:00.048Z,15.72
2019-03-04T10:11:02.308Z,15.72
2019-03-04T10:12:04.506Z,15.71
2019-03-04T10:13:06.713Z,15.70
2019-03-04T10:14:08.935Z,15.70
2019-03-04T10:15:11.192Z,15.70
2019-03-04T10:16:18.749Z,15.70
2019-03-04T10:17:17.323Z,15.71
2019-03-04T10:18:19.535Z,15.72
2019-03-04T10:19:21.749Z,15.72
2019-03-04T10:20:26.055Z,15.70
2019-03-04T10:21:28.459Z,15.71
2019-03-04T10:22:30.675Z,15.70
2019-03-04T10:23:32.877Z,15.71
2019-03-04T10:24:35.075Z,15.72
2019-03-04T10:25:37.281Z,15.72
2019-03-04T10:26:39.506Z,15.72
2019-03-04T10:27:41.723Z,15.73
2019-03-04T10:28:43.952Z,15.72
2019-03-04T10:29:46.165Z,15.74
2019-03-04T10:30:48.376Z,15.73
2019-03-04T10:31:50.618Z,15.72
2019-03-04T10:32:52.812Z,15.73
2019-03-04T10:33:55.001Z,15.73
2019-03-04T10:34:57.317Z,15.74
2019-03-04T10:35:59.522Z,15.74
2019-03-04T10:37:01.746Z,15.74
2019-03-04T10:38:06.671Z,15.76
2019-03-04T10:39:08.878Z,15.77
2019-03-04T10:40:11.094Z,15.77
2019-03-04T10:41:13.307Z,15.78
2019-03-04T10:42:15.547Z,15.77
2019-03-04T10:43:17.997Z,15.77
2019-03-04T10:44:20.230Z,15.77
2019-03-04T10:45:22.486Z,15.76
2019-03-04T10:46:24.885Z,15.77
2019-03-04T10:47:27.118Z,15.76
2019-03-04T10:48:29.336Z,15.74
2019-03-04T10:49:31.533Z,15.73
2019-03-04T10:50:33.743Z,15.73
2019-03-04T10:51:36.080Z,15.72
2019-03-04T10:52:41.017Z,15.72
2019-03-04T10:53:44.523Z,15.72
2019-03-04T10:54:46.751Z,15.71
2019-03-04T10:55:48.984Z,15.72
2019-03-04T10:56:51.182Z,15.71
2019-03-04T10:57:53.433Z,15.70
2019-03-04T10:58:55.653Z,15.70
2019-03-04T10:59:57.875Z,15.69
2019-03-04T11:01:00.182Z,15.70
2019-03-04T11:02:02.375Z,15.70
2019-03-04T11:03:04.607Z,15.71
2019-03-04T11:04:06.809Z,15.71
2019-03-04T11:05:09.025Z,15.69
2019-03-04T11:06:11.231Z,15.70
2019-03-04T11:07:13.433Z,15.70
2019-03-04T11:08:15.699Z,15.70
2019-03-04T11:09:17.903Z,15.69
2019-03-04T11:10:20.110Z,15.69
2019-03-04T11:11:29.453Z,15.70
2019-03-04T11:12:26.194Z,15.69
2019-03-04T11:13:28.433Z,15.68
2019-03-04T11:14:30.660Z,15.69
2019-03-04T11:15:32.887Z,15.69
2019-03-04T11:16:35.091Z,15.69
2019-03-04T11:17:40.413Z,15.69
2019-03-04T11:18:42.664Z,15.69
2019-03-04T11:19:44.887Z,15.69
2019-03-04T11:20:47.097Z,15.68
2019-03-04T11:21:49.306Z,15.67
2019-03-04T11:22:51.639Z,15.67
2019-03-04T11:23:53.936Z,15.67
2019-03-04T11:24:56.136Z,15.68
2019-03-04T11:26:01.338Z,15.69
2019-03-04T11:27:03.549Z,15.70
2019-03-04T11:28:05.762Z,15.71
2019-03-04T11:29:09.859Z,15.70
2019-03-04T11:30:12.330Z,15.72
2019-03-04T11:31:14.553Z,15.71
2019-03-04T11:32:16.752Z,15.71
2019-03-04T11:33:19.006Z,15.73
2019-03-04T11:34:21.226Z,15.72
2019-03-04T11:35:23.437Z,15.71
2019-03-04T11:36:25.631Z,15.71
2019-03-04T11:37:27.871Z,15.70
2019-03-04T11:38:30.082Z,15.69
2019-03-04T11:39:50.203Z,15.69
2019-03-04T11:40:52.412Z,15.69
2019-03-04T11:41:54.630Z,15.70
2019-03-04T11:42:56.855Z,15.69
2019-03-04T11:43:59.061Z,15.69
2019-03-04T11:45:01.264Z,15.69
2019-03-04T11:46:03.472Z,15.68
2019-03-04T11:47:05.705Z,15.68
2019-03-04T11:48:07.951Z,15.68
2019-03-04T11:49:10.158Z,15.68
2019-03-04T11:50:12.418Z,15.69
2019-03-04T11:51:14.603Z,15.68
2019-03-04T11:52:16.833Z,15.67
2019-03-04T11:53:19.113Z,15.67
2019-03-04T11:54:21.332Z,15.66
2019-03-04T11:55:23.574Z,15.66
2019-03-04T11:56:25.812Z,15.67
2019-03-04T11:57:28.075Z,15.67
2019-03-04T11:58:30.283Z,15.69
2019-03-04T11:59:32.526Z,15.70
2019-03-04T12:00:40.575Z,15.70
2019-03-04T12:01:48.161Z,15.70
2019-03-04T12:02:50.390Z,15.70
2019-03-04T12:03:52.667Z,15.69
2019-03-04T12:04:54.908Z,15.69
2019-03-04T12:05:57.158Z,15.68
2019-03-04T12:06:59.416Z,15.69
2019-03-04T12:08:03.697Z,15.67
2019-03-04T12:09:07.586Z,15.69
2019-03-04T12:10:09.780Z,15.68
2019-03-04T12:11:11.998Z,15.68
2019-03-04T12:12:14.190Z,15.68
2019-03-04T12:13:16.328Z,15.68
2019-03-04T12:14:18.576Z,15.67
2019-03-04T12:15:20.790Z,15.67
2019-03-04T12:16:23.010Z,15.67
2019-03-04T12:17:25.228Z,15.67
2019-03-04T12:18:27.424Z,15.68
2019-03-04T12:19:29.722Z,15.68
2019-03-04T12:20:31.939Z,15.68
2019-03-04T12:21:34.166Z,15.67
2019-03-04T12:22:36.380Z,15.67
2019-03-04T12:23:38.602Z,15.67
2019-03-04T12:24:40.810Z,15.68
2019-03-04T12:25:43.013Z,15.67
2019-03-04T12:26:45.232Z,15.67
2019-03-04T12:27:47.448Z,15.66
2019-03-04T12:28:49.663Z,15.66
2019-03-04T12:29:51.858Z,15.65
2019-03-04T12:30:54.182Z,15.66
2019-03-04T12:32:18.458Z,15.66
2019-03-04T12:33:20.663Z,15.66
2019-03-04T12:34:24.993Z,15.66
2019-03-04T12:35:26.836Z,15.66
2019-03-04T12:36:29.063Z,15.67
2019-03-04T12:37:31.318Z,15.66
2019-03-04T12:38:33.551Z,15.66
2019-03-04T12:39:35.770Z,15.65
2019-03-04T12:40:37.973Z,15.64
2019-03-04T12:41:40.194Z,15.64
2019-03-04T12:42:42.466Z,15.63
2019-03-04T12:43:44.661Z,15.64
2019-03-04T12:44:46.871Z,15.64
2019-03-04T12:45:49.084Z,15.65
2019-03-04T12:46:51.411Z,15.65
2019-03-04T12:47:53.820Z,15.65
2019-03-04T12:48:56.022Z,15.65
2019-03-04T12:49:58.238Z,15.64
2019-03-04T12:51:00.556Z,15.63
2019-03-04T12:52:02.702Z,15.63
2019-03-04T12:53:05.090Z,15.62
2019-03-04T12:54:07.247Z,15.62
2019-03-04T12:55:09.464Z,15.63
2019-03-04T12:56:11.667Z,15.63
2019-03-04T12:57:13.879Z,15.63
2019-03-04T12:58:16.176Z,15.64
2019-03-04T12:59:18.835Z,15.64
2019-03-04T13:00:21.147Z,15.65
2019-03-04T13:01:23.343Z,15.66
2019-03-04T13:02:25.560Z,15.67
2019-03-04T13:03:27.782Z,15.67
2019-03-04T13:04:30.188Z,15.68
2019-03-04T13:05:32.563Z,15.69
2019-03-04T13:06:34.803Z,15.70
2019-03-04T13:07:37.010Z,15.70
2019-03-04T13:08:39.241Z,15.70
2019-03-04T13:09:41.463Z,15.69
2019-03-04T13:10:43.675Z,15.68
2019-03-04T13:11:45.870Z,15.68
2019-03-04T13:12:49.299Z,15.68
2019-03-04T13:13:51.522Z,15.68
2019-03-04T13:14:53.724Z,15.67
2019-03-04T13:15:55.939Z,15.66
2019-03-04T13:16:58.240Z,15.65
2019-03-04T13:18:00.550Z,15.65
2019-03-04T13:19:02.783Z,15.64
2019-03-04T13:20:05.179Z,15.65
2019-03-04T13:21:07.393Z,15.65
2019-03-04T13:22:09.595Z,15.65
2019-03-04T13:23:11.809Z,15.65
2019-03-04T13:24:14.040Z,15.65
2019-03-04T13:25:16.251Z,15.66